Time;durP1;ratioP1;P1;durP2;ratioP2;P2;SDS_P1;SDS_P2;PMS_P1;PMS_P2;Temp;Humidity;BMP_temperature;BMP_pressure;BME280_temperature;BME280_humidity;BME280_pressure;Samples;Min_cycle;Max_cycle;Signal;HPM_P1;HPM_P2
2020/12/14 00:01:40;;;;;;;3.42;0.80;;;;;;;17.14;62.03;100482.38;4837245;29;20397;-77
2020/12/14 00:04:06;;;;;;;3.40;1.02;;;;;;;17.16;61.68;100482.31;4811181;29;20042;-77
2020/12/14 00:06:31;;;;;;;2.53;0.95;;;;;;;17.15;61.95;100478.88;4831859;29;20058;-77
2020/12/14 00:08:57;;;;;;;4.70;0.90;;;;;;;17.15;61.88;100480.63;4833188;29;20029;-77
2020/12/14 00:11:35;;;;;;;1.92;0.73;;;;;;;17.16;61.94;100479.72;4830939;29;20062;-78
2020/12/14 00:14:00;;;;;;;2.38;0.90;;;;;;;17.15;62.17;100481.47;4824136;29;20167;-78
2020/12/14 00:16:26;;;;;;;2.60;1.00;;;;;;;17.15;61.77;100488.44;4824483;29;20113;-78
2020/12/14 00:18:54;;;;;;;3.80;0.90;;;;;;;17.15;61.69;100478.03;4810414;29;20034;-78
2020/12/14 00:21:19;;;;;;;2.35;0.85;;;;;;;17.14;61.75;100474.56;4825958;29;20117;-78
2020/12/14 00:23:47;;;;;;;1.58;0.75;;;;;;;17.13;61.58;100474.59;4839737;29;20199;-77
2020/12/14 00:26:15;;;;;;;2.33;0.90;;;;;;;17.13;61.58;100470.22;4814776;29;20050;-77
2020/12/14 00:28:40;;;;;;;2.35;0.88;;;;;;;17.14;61.53;100481.53;4828931;29;20166;-77
2020/12/14 00:31:06;;;;;;;2.13;0.80;;;;;;;17.13;61.54;100485.84;4816677;29;20059;-77
2020/12/14 00:33:31;;;;;;;1.80;0.90;;;;;;;17.15;61.49;100491.03;4839946;29;20199;-77
2020/12/14 00:35:57;;;;;;;2.10;0.80;;;;;;;17.14;61.46;100490.16;4800508;29;20523;-77
2020/12/14 00:38:22;;;;;;;1.70;0.80;;;;;;;17.14;61.49;100471.97;4833246;29;20441;-77
2020/12/14 00:40:47;;;;;;;1.90;1.00;;;;;;;17.13;61.36;100477.19;4847865;29;20045;-77
2020/12/14 00:43:13;;;;;;;2.30;0.90;;;;;;;17.13;61.48;100472.84;4830975;29;20044;-77
2020/12/14 00:45:38;;;;;;;1.88;0.80;;;;;;;17.13;61.34;100477.19;4821221;29;20121;-78
2020/12/14 00:48:07;;;;;;;2.00;0.77;;;;;;;17.14;61.39;100478.91;4804786;29;20051;-78
2020/12/14 00:50:32;;;;;;;2.40;0.90;;;;;;;17.13;61.39;100469.38;4822804;29;20042;-77
2020/12/14 00:52:58;;;;;;;1.83;0.90;;;;;;;17.12;61.34;100465.06;4803531;29;20076;-77
2020/12/14 00:55:23;;;;;;;2.35;1.02;;;;;;;17.13;61.58;100464.19;4831053;29;20086;-78
2020/12/14 00:57:48;;;;;;;2.28;0.88;;;;;;;17.12;61.49;100460.72;4828620;29;20026;-77
2020/12/14 01:00:14;;;;;;;1.85;0.82;;;;;;;17.12;61.29;100460.72;4838625;29;20062;-77
2020/12/14 01:02:39;;;;;;;1.35;0.60;;;;;;;17.12;61.15;100458.13;4828925;29;20402;-77
2020/12/14 01:05:05;;;;;;;2.30;0.75;;;;;;;17.11;61.43;100448.59;4826975;29;20045;-77
2020/12/14 01:07:30;;;;;;;2.55;0.90;;;;;;;17.10;61.21;100452.09;4826914;29;20114;-77
2020/12/14 01:09:55;;;;;;;2.00;0.70;;;;;;;17.11;61.13;100453.78;4818149;29;20057;-77
2020/12/14 01:12:21;;;;;;;1.60;0.73;;;;;;;17.10;61.41;100462.50;4823559;29;20037;-77
2020/12/14 01:14:46;;;;;;;1.10;0.70;;;;;;;17.10;61.17;100459.88;4828583;29;20045;-77
2020/12/14 01:17:11;;;;;;;1.55;0.70;;;;;;;17.11;61.15;100460.75;4839473;29;20101;-77
2020/12/14 01:19:37;;;;;;;1.00;0.68;;;;;;;17.10;61.33;100459.03;4843112;29;20069;-77
2020/12/14 01:22:02;;;;;;;1.85;0.70;;;;;;;17.11;60.93;100460.75;4803821;29;20549;-77
2020/12/14 01:24:27;;;;;;;2.50;0.85;;;;;;;17.11;61.38;100455.53;4832580;29;20534;-77
2020/12/14 01:26:53;;;;;;;0.95;0.57;;;;;;;17.09;61.17;100439.94;4821734;29;20042;-77
2020/12/14 01:29:21;;;;;;;1.95;0.60;;;;;;;17.09;61.04;100442.56;4815667;29;20034;-78
2020/12/14 01:31:47;;;;;;;1.67;0.88;;;;;;;17.10;61.11;100433.88;4826685;29;20045;-77
2020/12/14 01:34:12;;;;;;;1.95;0.82;;;;;;;17.10;61.18;100441.69;4816060;29;20398;-78
2020/12/14 01:36:37;;;;;;;1.38;0.73;;;;;;;17.10;61.28;100440.84;4828556;29;22234;-77
2020/12/14 01:39:03;;;;;;;1.08;0.60;;;;;;;17.11;61.10;100439.94;4819988;29;20110;-77
2020/12/14 01:41:28;;;;;;;1.40;0.60;;;;;;;17.10;60.55;100436.50;4829651;29;20042;-77
2020/12/14 01:43:54;;;;;;;1.45;0.60;;;;;;;17.09;61.04;100439.94;4828751;29;20120;-78
2020/12/14 01:46:28;;;;;;;1.45;0.70;;;;;;;17.09;60.97;100428.69;4821042;29;20057;-78
2020/12/14 01:48:54;;;;;;;1.75;0.70;;;;;;;17.08;60.97;100438.25;4839816;29;20129;-78
2020/12/14 01:51:19;;;;;;;1.55;0.60;;;;;;;17.07;61.04;100441.72;4829112;29;20066;-78
2020/12/14 01:53:46;;;;;;;1.08;0.68;;;;;;;17.09;61.07;100454.69;4836485;29;20042;-78
2020/12/14 01:56:11;;;;;;;1.55;0.60;;;;;;;17.08;61.15;100461.66;4822618;29;20397;-77
2020/12/14 01:58:37;;;;;;;1.42;0.60;;;;;;;17.07;60.90;100449.50;4823967;29;20058;-77
2020/12/14 02:01:02;;;;;;;1.40;0.70;;;;;;;17.07;60.73;100449.50;4817918;29;20038;-78
2020/12/14 02:03:28;;;;;;;0.73;0.52;;;;;;;17.08;60.98;100451.25;4832974;29;20363;-78
2020/12/14 02:05:53;;;;;;;1.23;0.60;;;;;;;17.08;61.00;100447.81;4817452;29;20117;-77
2020/12/14 02:08:19;;;;;;;1.35;0.70;;;;;;;17.06;60.92;100451.25;4830472;29;20034;-78
2020/12/14 02:10:44;;;;;;;1.10;0.60;;;;;;;17.06;61.05;100446.06;4824121;29;20125;-78
2020/12/14 02:13:09;;;;;;;0.65;0.40;;;;;;;17.06;60.81;100437.41;4817685;29;20026;-78
2020/12/14 02:15:35;;;;;;;1.30;0.70;;;;;;;17.06;60.91;100447.81;4832664;29;20076;-78
2020/12/14 02:18:00;;;;;;;1.85;0.73;;;;;;;17.05;60.81;100439.16;4836127;29;20553;-78
2020/12/14 02:20:26;;;;;;;1.15;0.60;;;;;;;17.06;60.87;100445.22;4834207;29;20052;-78
2020/12/14 02:22:51;;;;;;;1.95;0.77;;;;;;;17.05;61.01;100446.97;4823849;29;20451;-78
2020/12/14 02:25:16;;;;;;;1.20;0.80;;;;;;;17.05;60.99;100444.34;4826634;29;20040;-78
2020/12/14 02:27:43;;;;;;;0.80;0.60;;;;;;;17.06;60.94;100440.00;4819674;29;20121;-78
2020/12/14 02:30:10;;;;;;;1.27;0.70;;;;;;;17.03;60.92;100440.91;4837345;29;20483;-78
2020/12/14 02:32:35;;;;;;;1.40;0.57;;;;;;;17.04;60.90;100442.63;4827544;29;20052;-78
2020/12/14 02:35:01;;;;;;;1.15;0.52;;;;;;;17.04;60.94;100431.38;4833005;29;20133;-78
2020/12/14 02:37:28;;;;;;;1.65;0.70;;;;;;;17.03;60.88;100430.53;4833020;29;20026;-78
2020/12/14 02:39:54;;;;;;;0.63;0.50;;;;;;;17.03;61.04;100442.66;4828829;29;20113;-78
2020/12/14 02:42:21;;;;;;;1.10;0.60;;;;;;;17.04;61.10;100429.63;4823811;29;20074;-78
2020/12/14 02:44:47;;;;;;;0.85;0.60;;;;;;;17.04;60.91;100426.16;4825484;29;20042;-78
2020/12/14 02:47:13;;;;;;;0.90;0.60;;;;;;;17.03;60.76;100424.47;4823342;29;20049;-78
2020/12/14 02:49:40;;;;;;;0.88;0.50;;;;;;;17.04;60.79;100429.63;4824833;29;20034;-78
2020/12/14 02:52:06;;;;;;;0.60;0.50;;;;;;;17.03;60.76;100422.72;4831072;29;22272;-78
2020/12/14 02:54:32;;;;;;;1.10;0.65;;;;;;;17.02;61.06;100407.13;4825957;29;20078;-78
2020/12/14 02:56:58;;;;;;;0.98;0.50;;;;;;;17.02;60.77;100408.00;4828498;29;20026;-78
2020/12/14 02:59:23;;;;;;;1.10;0.50;;;;;;;17.01;60.94;100403.69;4825358;29;20121;-78
2020/12/14 03:01:49;;;;;;;1.23;0.60;;;;;;;17.01;60.79;100390.69;4829744;29;20049;-78
2020/12/14 03:04:16;;;;;;;0.90;0.50;;;;;;;17.01;60.85;100392.44;4831792;29;20046;-78
2020/12/14 03:06:46;;;;;;;0.73;0.57;;;;;;;17.01;61.17;100390.69;4831632;29;20078;-78
2020/12/14 03:09:12;;;;;;;1.27;0.70;;;;;;;17.02;60.81;100412.34;4822426;29;20041;-78
2020/12/14 03:11:38;;;;;;;1.33;0.52;;;;;;;17.01;60.73;100402.84;4836222;29;20033;-78
2020/12/14 03:14:05;;;;;;;0.85;0.50;;;;;;;16.99;60.75;100400.25;4828637;29;20049;-78
2020/12/14 03:16:30;;;;;;;2.00;0.50;;;;;;;17.00;60.88;100401.09;4818642;29;20037;-78
2020/12/14 03:18:55;;;;;;;0.95;0.55;;;;;;;17.01;60.70;100406.28;4841717;29;20030;-78
2020/12/14 03:21:20;;;;;;;0.57;0.50;;;;;;;17.00;60.91;100399.34;4822223;29;20038;-78
2020/12/14 03:23:46;;;;;;;1.08;0.50;;;;;;;17.00;60.94;100414.94;4812806;29;20051;-78
2020/12/14 03:26:15;;;;;;;0.93;0.50;;;;;;;17.01;60.71;100411.47;4835118;29;20042;-78
2020/12/14 03:28:41;;;;;;;1.25;0.60;;;;;;;17.00;60.88;100407.16;4806973;29;20087;-78
2020/12/14 03:31:06;;;;;;;0.98;0.50;;;;;;;17.00;60.78;100401.94;4831399;29;20498;-78
2020/12/14 03:33:32;;;;;;;0.93;0.40;;;;;;;17.00;60.82;100401.94;4822630;29;20378;-78
2020/12/14 03:35:58;;;;;;;1.10;0.57;;;;;;;17.01;60.66;100397.63;4819393;29;20455;-77
2020/12/14 03:38:24;;;;;;;0.80;0.47;;;;;;;17.00;60.65;100390.69;4835718;29;20141;-77
2020/12/14 03:40:49;;;;;;;0.95;0.45;;;;;;;17.00;60.58;100401.94;4833633;29;20105;-78
2020/12/14 03:43:14;;;;;;;1.40;0.50;;;;;;;17.01;60.75;100402.84;4834315;29;20060;-78
2020/12/14 03:45:40;;;;;;;1.05;0.60;;;;;;;17.01;60.72;100395.03;4825982;29;20094;-78
2020/12/14 03:48:05;;;;;;;1.10;0.60;;;;;;;16.99;60.84;100392.44;4838656;29;20036;-78
2020/12/14 03:50:30;;;;;;;1.25;0.60;;;;;;;17.00;60.88;100388.09;4837098;29;20035;-78
2020/12/14 03:52:56;;;;;;;0.90;0.40;;;;;;;17.00;60.49;100391.56;4836100;29;20113;-78
2020/12/14 03:55:21;;;;;;;1.30;0.52;;;;;;;17.00;60.67;100394.16;4842925;29;20038;-78
2020/12/14 03:57:46;;;;;;;1.17;0.60;;;;;;;16.99;60.76;100395.03;4839864;29;20037;-78
2020/12/14 04:00:12;;;;;;;0.73;0.40;;;;;;;16.99;60.57;100392.44;4818115;29;20039;-78
2020/12/14 04:02:37;;;;;;;0.77;0.60;;;;;;;17.00;60.73;100401.94;4839669;29;20061;-78
2020/12/14 04:05:03;;;;;;;1.15;0.40;;;;;;;16.99;60.82;100392.44;4835848;29;20034;-78
2020/12/14 04:07:28;;;;;;;1.70;0.60;;;;;;;16.99;60.79;100392.44;4820378;29;20030;-78
2020/12/14 04:09:54;;;;;;;0.60;0.40;;;;;;;16.98;60.40;100388.13;4815542;29;20074;-78
2020/12/14 04:12:19;;;;;;;0.68;0.40;;;;;;;16.99;60.76;100381.19;4843914;29;20123;-78
2020/12/14 04:14:44;;;;;;;0.70;0.50;;;;;;;16.98;60.77;100375.13;4824444;29;20034;-78
2020/12/14 04:17:10;;;;;;;1.40;0.60;;;;;;;16.98;60.66;100369.06;4837049;29;20089;-78
2020/12/14 04:19:35;;;;;;;0.80;0.50;;;;;;;16.98;60.73;100374.25;4827969;29;20030;-78
2020/12/14 04:22:07;;;;;;;1.02;0.50;;;;;;;16.98;60.65;100371.66;4829340;29;20044;-78
2020/12/14 04:24:33;;;;;;;1.00;0.50;;;;;;;16.97;60.70;100376.00;4841013;29;20643;-78
2020/12/14 04:26:58;;;;;;;0.52;0.40;;;;;;;16.98;60.76;100384.66;4831012;29;20036;-78
2020/12/14 04:29:23;;;;;;;0.70;0.40;;;;;;;16.97;60.61;100391.59;4826305;29;20034;-78
2020/12/14 04:31:50;;;;;;;1.05;0.40;;;;;;;16.98;60.60;100376.88;4842088;29;20030;-78
2020/12/14 04:34:16;;;;;;;0.70;0.40;;;;;;;16.98;60.77;100384.66;4828251;29;20394;-78
2020/12/14 04:36:51;;;;;;;0.80;0.43;;;;;;;16.97;60.70;100376.00;4825756;29;20054;-78
2020/12/14 04:39:18;;;;;;;0.88;0.40;;;;;;;16.97;60.54;100370.81;4822127;29;20123;-78
2020/12/14 04:41:44;;;;;;;0.50;0.30;;;;;;;16.96;60.62;100365.63;4828939;29;20033;-78
2020/12/14 04:44:11;;;;;;;0.82;0.50;;;;;;;16.95;60.63;100351.78;4836090;29;20030;-78
2020/12/14 04:46:36;;;;;;;0.45;0.40;;;;;;;16.96;60.69;100339.63;4817582;29;20438;-78
2020/12/14 04:49:04;;;;;;;0.60;0.50;;;;;;;16.96;60.58;100342.22;4837431;29;20073;-78
2020/12/14 04:51:31;;;;;;;1.05;0.50;;;;;;;16.96;60.61;100321.44;4834137;29;20038;-78
2020/12/14 04:53:59;;;;;;;1.27;0.50;;;;;;;16.95;60.45;100315.38;4843821;29;20053;-78
2020/12/14 04:56:27;;;;;;;0.52;0.40;;;;;;;16.93;60.45;100304.16;4844923;29;20065;-78
2020/12/14 04:58:53;;;;;;;0.68;0.50;;;;;;;16.94;60.72;100338.78;4821053;29;20121;-78
2020/12/14 05:01:18;;;;;;;0.50;0.40;;;;;;;16.95;60.54;100367.38;4825847;29;20508;-78
2020/12/14 05:03:43;;;;;;;1.02;0.60;;;;;;;16.96;60.65;100374.31;4841767;29;20076;-78
2020/12/14 05:06:09;;;;;;;0.30;0.30;;;;;;;16.95;60.64;100366.53;4830497;29;20037;-78
2020/12/14 05:08:34;;;;;;;0.32;0.30;;;;;;;16.95;60.52;100361.31;4799111;29;20478;-78
2020/12/14 05:11:00;;;;;;;0.50;0.40;;;;;;;16.94;60.38;100355.28;4802636;29;20057;-78
2020/12/14 05:13:26;;;;;;;0.40;0.40;;;;;;;16.94;60.60;100350.06;4827918;29;20400;-78
2020/12/14 05:15:52;;;;;;;0.50;0.40;;;;;;;16.94;60.41;100344.88;4820855;29;20030;-78
2020/12/14 05:18:22;;;;;;;0.63;0.38;;;;;;;16.94;60.38;100350.06;4836918;29;20039;-78
2020/12/14 05:21:03;;;;;;;0.47;0.40;;;;;;;16.93;60.42;100350.09;4828005;29;21583;-78
2020/12/14 05:23:29;;;;;;;0.47;0.47;;;;;;;16.94;60.62;100341.41;4835566;29;20366;-78
2020/12/14 05:26:13;;;;;;;0.70;0.38;;;;;;;16.94;60.44;100347.47;4836382;29;20389;-78
2020/12/14 05:28:39;;;;;;;0.63;0.47;;;;;;;16.95;60.41;100349.19;4826659;29;20038;-78
2020/12/14 05:31:04;;;;;;;0.82;0.40;;;;;;;16.94;60.47;100352.69;4831545;29;20034;-77
2020/12/14 05:33:31;;;;;;;0.80;0.40;;;;;;;16.94;60.28;100341.41;4835124;29;20037;-78
2020/12/14 05:35:57;;;;;;;0.68;0.47;;;;;;;16.92;60.25;100337.97;4844312;29;20066;-78
2020/12/14 05:38:25;;;;;;;0.85;0.40;;;;;;;16.94;60.55;100349.19;4831530;29;20033;-78
2020/12/14 05:40:52;;;;;;;1.38;0.40;;;;;;;16.93;60.42;100347.50;4827423;29;20041;-78
2020/12/14 05:43:20;;;;;;;0.77;0.38;;;;;;;16.92;60.70;100353.56;4848705;29;20082;-78
2020/12/14 05:45:50;;;;;;;0.95;0.40;;;;;;;16.94;60.42;100357.00;4845374;29;20030;-78
2020/12/14 05:48:27;;;;;;;0.47;0.38;;;;;;;16.93;60.55;100350.94;4833580;29;20590;-78
2020/12/14 05:50:59;;;;;;;0.40;0.40;;;;;;;16.93;60.34;100350.94;4833304;29;20041;-78
2020/12/14 05:53:34;;;;;;;0.63;0.40;;;;;;;16.94;60.38;100344.88;4827008;29;20054;-78
2020/12/14 05:56:00;;;;;;;0.73;0.43;;;;;;;16.93;60.39;100340.53;4831452;29;20377;-78
2020/12/14 05:58:29;;;;;;;0.65;0.50;;;;;;;16.93;60.23;100337.09;4840451;29;20068;-78
2020/12/14 06:00:55;;;;;;;0.65;0.50;;;;;;;16.92;60.42;100332.75;4826266;29;20066;-78
2020/12/14 06:03:24;;;;;;;0.32;0.32;;;;;;;16.93;60.47;100326.69;4830304;29;20045;-79
2020/12/14 06:05:57;;;;;;;1.08;0.50;;;;;;;16.92;60.41;100333.63;4846200;29;20057;-79
2020/12/14 06:08:32;;;;;;;4.72;2.25;;;;;;;16.94;60.65;100318.88;4837024;29;20057;-77
2020/12/14 06:11:00;;;;;;;4.68;1.73;;;;;;;16.94;60.72;100321.50;4840718;29;20393;-78
2020/12/14 06:13:31;;;;;;;6.28;2.00;;;;;;;16.94;60.88;100321.50;4827585;29;20034;-78
2020/12/14 06:16:02;;;;;;;6.30;2.08;;;;;;;16.95;60.87;100317.13;4834034;29;20057;-78
2020/12/14 06:18:36;;;;;;;6.60;2.05;;;;;;;16.91;61.16;100316.31;4838284;29;20029;-77
2020/12/14 06:21:02;;;;;;;6.60;2.10;;;;;;;16.93;60.97;100326.69;4830589;29;20506;-78
2020/12/14 06:23:39;;;;;;;5.07;1.90;;;;;;;16.96;61.13;100334.44;4825539;29;20118;-78
2020/12/14 06:26:06;;;;;;;3.90;1.70;;;;;;;16.95;61.28;100337.94;4840675;29;20026;-77
2020/12/14 06:28:34;;;;;;;5.45;1.95;;;;;;;16.94;61.29;100344.88;4840225;29;20080;-78
2020/12/14 06:31:00;;;;;;;4.40;1.60;;;;;;;16.95;61.04;100336.19;4844037;29;20470;-78
2020/12/14 06:33:39;;;;;;;5.95;1.70;;;;;;;16.97;61.17;100346.56;4842167;29;20090;-78
2020/12/14 06:36:19;;;;;;;6.18;1.75;;;;;;;16.98;61.16;100346.53;4819619;29;20054;-78
2020/12/14 06:38:47;;;;;;;3.50;1.40;;;;;;;16.98;61.15;100340.47;4840945;29;20034;-77
2020/12/14 06:41:23;;;;;;;5.22;1.63;;;;;;;16.98;61.13;100343.06;4828868;29;20390;-77
2020/12/14 06:44:06;;;;;;;6.90;1.77;;;;;;;16.98;61.11;100343.06;4853823;29;20085;-77
2020/12/14 06:46:33;;;;;;;3.45;1.38;;;;;;;16.98;61.15;100343.91;4843890;29;20033;-78
2020/12/14 06:49:00;;;;;;;6.88;1.67;;;;;;;16.99;61.19;100357.81;4843794;29;20469;-78
2020/12/14 06:51:26;;;;;;;4.50;1.50;;;;;;;16.99;61.31;100347.41;4822870;29;20037;-78
2020/12/14 06:53:54;;;;;;;5.78;1.50;;;;;;;16.99;61.27;100353.47;4824291;29;20038;-78
2020/12/14 06:56:28;;;;;;;5.25;1.67;;;;;;;17.00;61.29;100349.97;4838622;29;20120;-78
2020/12/14 06:58:57;;;;;;;3.72;1.40;;;;;;;17.00;61.22;100346.50;4830741;29;20486;-78
2020/12/14 07:01:34;;;;;;;3.13;1.50;;;;;;;17.00;61.31;100339.56;4828168;29;20045;-78
2020/12/14 07:04:20;;;;;;;4.63;1.42;;;;;;;17.00;61.21;100342.16;4834607;29;20128;-78
2020/12/14 07:06:46;;;;;;;4.63;1.48;;;;;;;17.01;61.10;100337.84;4841002;29;20117;-78
2020/12/14 07:09:27;;;;;;;2.72;1.10;;;;;;;17.00;61.29;100342.16;4830357;29;20109;-78
2020/12/14 07:11:54;;;;;;;2.70;1.30;;;;;;;17.01;61.29;100338.69;4805898;29;20098;-78
2020/12/14 07:14:28;;;;;;;4.88;1.30;;;;;;;17.00;61.47;100347.38;4822785;29;20029;-78
2020/12/14 07:16:53;;;;;;;;;;;;;;;17.02;61.20;100355.16;4837611;29;20030;-78
2020/12/14 07:19:19;;;;;;;5.28;1.40;;;;;;;17.02;61.31;100352.53;4826869;29;19917;-78
2020/12/14 07:21:52;;;;;;;3.10;1.27;;;;;;;17.01;61.31;100353.44;4842453;29;20040;-78
2020/12/14 07:24:17;;;;;;;3.13;1.23;;;;;;;17.00;61.43;100347.38;4831402;29;20054;-79
2020/12/14 07:26:43;;;;;;;3.85;1.38;;;;;;;17.01;61.23;100350.84;4811338;29;20556;-79
2020/12/14 07:29:09;;;;;;;3.58;1.30;;;;;;;17.03;61.48;100357.72;4804995;29;20027;-78
2020/12/14 07:31:35;;;;;;;2.88;1.30;;;;;;;17.03;61.56;100360.34;4826779;29;20034;-78
2020/12/14 07:34:00;;;;;;;2.03;0.98;;;;;;;17.04;61.15;100361.19;4816646;29;20056;-78
2020/12/14 07:36:27;;;;;;;3.05;1.27;;;;;;;17.04;61.26;100369.84;4826814;29;20149;-79
2020/12/14 07:38:55;;;;;;;2.53;0.93;;;;;;;17.04;61.41;100375.03;4839354;29;20120;-78
2020/12/14 07:41:21;;;;;;;2.85;1.30;;;;;;;17.03;61.35;100365.53;4840157;29;20034;-79
2020/12/14 07:43:58;;;;;;;2.05;1.20;;;;;;;17.05;61.65;100370.72;4827656;29;20094;-78
2020/12/14 07:46:33;;;;;;;3.08;1.35;;;;;;;17.04;61.35;100372.44;4824656;29;20090;-79
2020/12/14 07:49:10;;;;;;;2.17;1.00;;;;;;;17.05;61.26;100375.91;4828211;29;20083;-79
2020/12/14 07:51:37;;;;;;;3.50;1.10;;;;;;;17.06;61.71;100380.22;4835497;29;20082;-78
2020/12/14 07:54:06;;;;;;;2.03;1.10;;;;;;;17.10;61.47;100386.25;4846560;29;20098;-79
2020/12/14 07:56:39;;;;;;;4.22;1.20;;;;;;;17.24;61.33;100381.69;4835361;29;20180;-79
2020/12/14 07:59:15;;;;;;;2.45;1.17;;;;;;;17.34;61.01;100388.47;4838507;29;20025;-79
2020/12/14 08:01:40;;;;;;;2.88;1.00;;;;;;;17.39;60.74;100389.25;4817969;29;20076;-79
2020/12/14 08:04:06;;;;;;;3.83;1.15;;;;;;;17.43;60.95;100396.13;4823890;29;20431;-79
2020/12/14 08:06:33;;;;;;;5.20;1.15;;;;;;;17.46;60.74;100388.28;4815598;29;20473;-78
2020/12/14 08:09:01;;;;;;;3.78;0.95;;;;;;;17.47;60.67;100395.19;4819862;29;20035;-78
2020/12/14 08:11:26;;;;;;;4.53;1.13;;;;;;;17.47;60.61;100389.97;4838932;29;20026;-78
2020/12/14 08:13:52;;;;;;;3.83;1.13;;;;;;;17.49;60.85;100392.56;4830630;29;20109;-78
2020/12/14 08:16:20;;;;;;;3.42;1.10;;;;;;;17.50;60.97;100401.22;4828404;29;20038;-77
2020/12/14 08:18:49;;;;;;;3.50;1.10;;;;;;;17.52;60.80;100402.91;4835690;29;20043;-79
2020/12/14 08:21:25;;;;;;;3.05;1.10;;;;;;;17.54;60.92;100398.53;4828593;29;20026;-79
2020/12/14 08:23:52;;;;;;;3.00;1.10;;;;;;;17.53;60.55;100389.03;4817788;29;20034;-79
2020/12/14 08:26:24;;;;;;;2.80;0.88;;;;;;;17.56;60.73;100394.19;4830191;29;20534;-79
2020/12/14 08:28:55;;;;;;;1.90;0.90;;;;;;;17.57;60.74;100400.22;4832627;29;20449;-79
2020/12/14 08:31:20;;;;;;;1.88;0.95;;;;;;;17.60;60.32;100405.41;4830839;29;20046;-78
2020/12/14 08:33:54;;;;;;;2.72;1.15;;;;;;;17.61;60.44;100404.50;4796454;29;20405;-79
2020/12/14 08:36:20;;;;;;;1.63;0.90;;;;;;;17.63;60.42;100400.13;4827237;29;20379;-79
2020/12/14 08:38:46;;;;;;;1.88;1.00;;;;;;;17.63;60.55;100408.78;4840969;29;20087;-78
2020/12/14 08:41:17;;;;;;;1.75;1.02;;;;;;;17.64;60.41;100420.09;4833287;29;20038;-79
2020/12/14 08:43:42;;;;;;;2.60;0.90;;;;;;;17.65;60.32;100421.78;4844258;29;20065;-78
2020/12/14 08:46:18;;;;;;;1.17;0.68;;;;;;;17.67;60.31;100423.47;4822560;29;20061;-79
2020/12/14 08:48:52;;;;;;;2.08;0.90;;;;;;;17.69;60.20;100426.06;4838116;29;20037;-79
2020/12/14 08:51:33;;;;;;;1.15;0.80;;;;;;;17.68;60.46;100433.00;4838095;29;20037;-79
2020/12/14 08:54:16;;;;;;;2.80;0.73;;;;;;;17.69;59.96;100428.66;4827511;29;20474;-79
2020/12/14 08:56:42;;;;;;;1.52;0.77;;;;;;;17.71;60.34;100426.91;4834501;29;20128;-79
2020/12/14 08:59:15;;;;;;;1.70;0.90;;;;;;;17.75;59.99;100423.38;4824997;29;20068;-80
2020/12/14 09:02:00;;;;;;;1.27;0.65;;;;;;;17.75;60.21;100431.16;4828021;29;20030;-80
2020/12/14 09:04:27;;;;;;;1.42;0.73;;;;;;;17.77;60.16;100434.59;4840251;29;20405;-80
2020/12/14 09:06:53;;;;;;;1.58;0.75;;;;;;;17.79;59.98;100445.84;4825200;29;20125;-79
2020/12/14 09:09:18;;;;;;;2.00;0.80;;;;;;;17.78;60.24;100444.13;4817749;29;20121;-79
2020/12/14 09:11:46;;;;;;;2.08;1.00;;;;;;;17.76;60.06;100450.25;4830203;29;20041;-79
2020/12/14 09:14:23;;;;;;;1.95;0.88;;;;;;;17.78;60.14;100457.13;4839118;29;20064;-80
2020/12/14 09:16:50;;;;;;;1.67;0.70;;;;;;;17.79;59.96;100453.66;4834821;29;20061;-79
2020/12/14 09:19:20;;;;;;;1.50;0.70;;;;;;;17.79;60.05;100457.97;4833017;29;20061;-79
2020/12/14 09:21:46;;;;;;;2.35;0.90;;;;;;;17.81;60.18;100464.03;4840574;29;20034;-80
2020/12/14 09:24:19;;;;;;;1.08;0.60;;;;;;;17.82;60.10;100468.41;4818328;29;20038;-80
2020/12/14 09:26:45;;;;;;;;;;;;;;;17.80;60.10;100467.53;4826237;29;20560;-80
2020/12/14 09:29:11;;;;;;;1.67;0.70;;;;;;;17.81;60.05;100470.13;4820986;29;19977;-80
2020/12/14 09:31:38;;;;;;;2.72;0.90;;;;;;;17.85;60.11;100465.72;4825793;29;20041;-80
2020/12/14 09:34:03;;;;;;;1.20;0.70;;;;;;;17.84;59.94;100470.09;4826585;29;20034;-80
2020/12/14 09:36:29;;;;;;;1.40;0.80;;;;;;;17.85;59.81;100471.78;4815565;29;20405;-80
2020/12/14 09:38:55;;;;;;;1.77;0.80;;;;;;;17.86;59.82;100470.06;4819380;29;20509;-80
2020/12/14 09:41:22;;;;;;;1.17;0.65;;;;;;;17.86;59.89;100480.47;4851607;29;20078;-80
2020/12/14 09:43:47;;;;;;;0.88;0.57;;;;;;;17.86;59.84;100477.88;4842488;29;20037;-80
2020/12/14 09:46:12;;;;;;;1.58;0.70;;;;;;;17.92;59.81;100469.97;4805761;29;20046;-80
2020/12/14 09:48:40;;;;;;;1.77;0.70;;;;;;;17.94;59.78;100480.34;4834769;29;20062;-80
2020/12/14 09:51:06;;;;;;;1.50;0.70;;;;;;;17.94;59.60;100480.34;4822410;29;20042;-80
2020/12/14 09:53:32;;;;;;;1.58;0.75;;;;;;;17.95;59.63;100474.25;4847344;29;20117;-81
2020/12/14 09:55:58;;;;;;;1.02;0.50;;;;;;;17.95;59.71;100471.66;4832647;29;20065;-80
2020/12/14 09:58:23;;;;;;;1.02;0.50;;;;;;;17.97;59.70;100472.50;4817288;29;20054;-80
2020/12/14 10:00:48;;;;;;;1.67;0.60;;;;;;;17.99;59.58;100470.72;4832910;29;20034;-80
2020/12/14 10:03:13;;;;;;;1.10;0.50;;;;;;;18.02;59.35;100476.72;4813442;29;20038;-80
2020/12/14 10:05:46;;;;;;;0.98;0.50;;;;;;;18.03;59.45;100474.97;4827462;29;20030;-80
2020/12/14 10:08:11;;;;;;;1.25;0.60;;;;;;;18.03;59.43;100472.38;4806081;29;20034;-80
2020/12/14 10:10:37;;;;;;;0.60;0.47;;;;;;;18.05;59.38;100471.47;4821110;29;20034;-80
2020/12/14 10:13:02;;;;;;;1.10;0.60;;;;;;;18.04;59.29;100472.34;4832748;29;20038;-79
2020/12/14 10:15:27;;;;;;;0.82;0.63;;;;;;;18.04;59.43;100474.94;4830763;29;20041;-79
2020/12/14 10:17:53;;;;;;;0.88;0.60;;;;;;;18.05;59.43;100475.81;4857154;29;20038;-79
2020/12/14 10:20:18;;;;;;;1.80;0.45;;;;;;;18.06;59.39;100482.75;4831966;29;20034;-79
2020/12/14 10:22:43;;;;;;;0.88;0.50;;;;;;;18.06;59.52;100480.13;4834585;29;20033;-79
2020/12/14 10:25:09;;;;;;;1.08;0.60;;;;;;;18.08;59.41;100491.38;4814300;29;20094;-79
2020/12/14 10:27:34;;;;;;;0.95;0.60;;;;;;;18.11;59.42;100491.31;4825664;29;20073;-79
2020/12/14 10:30:00;;;;;;;0.55;0.50;;;;;;;18.09;59.38;100493.97;4820229;29;20124;-79
2020/12/14 10:32:25;;;;;;;1.52;0.60;;;;;;;18.11;59.36;100495.69;4832778;29;20034;-79
2020/12/14 10:34:50;;;;;;;0.73;0.50;;;;;;;18.11;59.11;100496.53;4813308;29;20042;-79
2020/12/14 10:37:16;;;;;;;1.35;0.55;;;;;;;18.11;59.45;100496.53;4819508;29;20034;-79
2020/12/14 10:39:43;;;;;;;0.63;0.45;;;;;;;18.11;59.42;100499.13;4833487;29;20034;-79
2020/12/14 10:42:08;;;;;;;3.00;0.63;;;;;;;18.13;59.34;100510.38;4822854;29;20406;-79
2020/12/14 10:44:34;;;;;;;0.63;0.50;;;;;;;18.14;59.07;100513.84;4795692;29;20034;-78
2020/12/14 10:47:06;;;;;;;0.70;0.50;;;;;;;18.15;59.17;100513.81;4798673;29;20040;-79
2020/12/14 10:49:32;;;;;;;1.60;0.52;;;;;;;18.15;59.62;100512.97;4824042;29;20041;-79
2020/12/14 10:51:58;;;;;;;0.50;0.40;;;;;;;18.16;58.91;100512.06;4825390;29;20699;-79
2020/12/14 10:54:23;;;;;;;1.00;0.47;;;;;;;18.17;59.09;100517.28;4824846;29;20041;-79
2020/12/14 10:56:49;;;;;;;1.08;0.55;;;;;;;18.17;58.97;100512.06;4826016;29;20037;-79
2020/12/14 10:59:14;;;;;;;1.23;0.52;;;;;;;18.18;59.30;100518.13;4829377;29;20158;-79
2020/12/14 11:01:39;;;;;;;0.75;0.40;;;;;;;18.19;59.16;100512.91;4842914;29;20033;-79
2020/12/14 11:04:08;;;;;;;0.93;0.57;;;;;;;18.18;59.16;100516.41;4815451;29;20042;-79
2020/12/14 11:06:33;;;;;;;1.35;0.50;;;;;;;18.20;59.14;100516.34;4826483;29;20026;-81
2020/12/14 11:08:59;;;;;;;1.02;0.43;;;;;;;18.20;59.28;100516.34;4831706;29;20129;-78
2020/12/14 11:11:31;;;;;;;0.77;0.50;;;;;;;18.21;59.13;100524.16;4841213;29;20508;-79
2020/12/14 11:13:56;;;;;;;2.33;0.50;;;;;;;18.24;59.19;100518.88;4833479;29;20378;-80
2020/12/14 11:16:22;;;;;;;0.70;0.60;;;;;;;18.25;59.33;100520.59;4812226;29;20058;-79
2020/12/14 11:18:47;;;;;;;1.65;0.70;;;;;;;18.25;59.50;100524.97;4826563;29;20026;-79
2020/12/14 11:21:13;;;;;;;1.30;0.63;;;;;;;18.26;59.65;100516.25;4813598;29;20065;-79
2020/12/14 11:23:38;;;;;;;1.30;0.70;;;;;;;18.30;59.74;100530.94;4835379;29;20375;-80
2020/12/14 11:26:04;;;;;;;22.27;15.40;;;;;;;18.30;59.74;100517.91;4817361;29;20057;-78
2020/12/14 11:28:30;;;;;;;21.55;12.52;;;;;;;18.32;59.97;100528.31;4841494;29;20046;-77